SWA3285 KFLL-KLAS
Flight info
| Callsign | SWA3285 |
|---|---|
| Flight time | N/A |
| Altitude | 30000 |
| Route | HROCK2 SMELZ Q116 JAWJA/N0470F320 DCT MGMRY DCT MEI DCT KF18I DCT TXK DCT DECOD DCT ADM DCT HEATR/N0470F340 DCT PNH DCT FTI DCT TANER DCT TBC DCT SQIRE RKSTR4 |
| Aircraft | B738/M-SDE2E3FGHIRWXY/LB1 |
Departure
| Time | 2026-05-03 22:25 |
|---|---|
| Airport | Fort Lauderdale Hollywood International Airport (KFLL) |
Arrival
| Time | N/A |
|---|---|
| Airport | Harry Reid International Airport (KLAS) |
| Time | Latitude | Longitude | Altitude | Speed | Heading |
|---|---|---|---|---|---|
| 2026-05-03 20:49 | 26.07406 | -80.13835 | 13 ft | 0 kts | 211° |
| 2026-05-03 21:12 | 26.07407 | -80.13834 | 13 ft | 0 kts | 211° |
| 2026-05-03 21:12 | 26.07408 | -80.13834 | 13 ft | 0 kts | 211° |
| 2026-05-03 21:17 | 26.07409 | -80.13833 | 13 ft | 0 kts | 211° |
| 2026-05-03 21:18 | 26.07423 | -80.13823 | 14 ft | 3 kts | 210° |
| 2026-05-03 21:18 | 26.07437 | -80.13810 | 15 ft | 3 kts | 225° |
| 2026-05-03 21:18 | 26.07451 | -80.13795 | 12 ft | 3 kts | 225° |
| 2026-05-03 21:18 | 26.07464 | -80.13780 | 12 ft | 3 kts | 239° |
| 2026-05-03 21:19 | 26.07470 | -80.13763 | 14 ft | 0 kts | 266° |
| 2026-05-03 21:28 | 26.07469 | -80.13800 | 12 ft | 9 kts | 269° |
| 2026-05-03 21:28 | 26.07475 | -80.13884 | 12 ft | 11 kts | 277° |
| 2026-05-03 21:29 | 26.07486 | -80.13967 | 14 ft | 11 kts | 274° |
| 2026-05-03 21:29 | 26.07485 | -80.14048 | 16 ft | 10 kts | 269° |
| 2026-05-03 21:29 | 26.07486 | -80.14128 | 17 ft | 10 kts | 270° |
| 2026-05-03 21:29 | 26.07486 | -80.14205 | 17 ft | 10 kts | 270° |
| 2026-05-03 21:30 | 26.07487 | -80.14280 | 17 ft | 10 kts | 271° |
| 2026-05-03 21:30 | 26.07488 | -80.14353 | 17 ft | 9 kts | 269° |
| 2026-05-03 21:30 | 26.07487 | -80.14423 | 18 ft | 8 kts | 270° |
| 2026-05-03 21:30 | 26.07487 | -80.14431 | 18 ft | 0 kts | 270° |
| 2026-05-03 21:31 | 26.07488 | -80.14453 | 18 ft | 4 kts | 271° |
| 2026-05-03 21:31 | 26.07488 | -80.14475 | 18 ft | 0 kts | 271° |
| 2026-05-03 21:37 | 26.07488 | -80.14479 | 19 ft | 4 kts | 271° |
| 2026-05-03 21:37 | 26.07488 | -80.14515 | 19 ft | 5 kts | 270° |
| 2026-05-03 21:38 | 26.07488 | -80.14577 | 19 ft | 12 kts | 270° |
| 2026-05-03 21:38 | 26.07489 | -80.14677 | 18 ft | 13 kts | 271° |
| 2026-05-03 21:38 | 26.07487 | -80.14778 | 15 ft | 13 kts | 271° |
| 2026-05-03 21:38 | 26.07489 | -80.14877 | 14 ft | 13 kts | 271° |
| 2026-05-03 21:39 | 26.07489 | -80.14973 | 14 ft | 12 kts | 270° |
| 2026-05-03 21:39 | 26.07490 | -80.15028 | 14 ft | 0 kts | 270° |
| 2026-05-03 21:39 | 26.07490 | -80.15059 | 14 ft | 11 kts | 270° |
| 2026-05-03 21:39 | 26.07490 | -80.15165 | 12 ft | 16 kts | 270° |
| 2026-05-03 21:40 | 26.07491 | -80.15299 | 10 ft | 18 kts | 270° |
| 2026-05-03 21:40 | 26.07492 | -80.15437 | 10 ft | 18 kts | 271° |
| 2026-05-03 21:40 | 26.07492 | -80.15570 | 13 ft | 17 kts | 270° |
| 2026-05-03 21:40 | 26.07493 | -80.15699 | 13 ft | 16 kts | 271° |
| 2026-05-03 21:41 | 26.07494 | -80.15829 | 14 ft | 19 kts | 269° |
| 2026-05-03 21:41 | 26.07495 | -80.15958 | 16 ft | 0 kts | 271° |
| 2026-05-03 21:44 | 26.07495 | -80.15976 | 17 ft | 0 kts | 271° |
| 2026-05-03 21:45 | 26.07495 | -80.15977 | 17 ft | 0 kts | 271° |
| 2026-05-03 21:45 | 26.07495 | -80.15979 | 17 ft | 0 kts | 270° |
| 2026-05-03 21:46 | 26.07495 | -80.15982 | 17 ft | 0 kts | 270° |
| 2026-05-03 21:46 | 26.07495 | -80.16027 | 18 ft | 10 kts | 270° |
| 2026-05-03 21:47 | 26.07496 | -80.16106 | 19 ft | 10 kts | 270° |
| 2026-05-03 21:47 | 26.07496 | -80.16153 | 19 ft | 2 kts | 270° |
| 2026-05-03 21:47 | 26.07496 | -80.16156 | 19 ft | 0 kts | 270° |
| 2026-05-03 21:47 | 26.07496 | -80.16165 | 19 ft | 5 kts | 270° |
| 2026-05-03 21:48 | 26.07496 | -80.16202 | 18 ft | 5 kts | 270° |
| 2026-05-03 21:48 | 26.07496 | -80.16240 | 18 ft | 5 kts | 269° |
| 2026-05-03 21:48 | 26.07496 | -80.16280 | 18 ft | 5 kts | 269° |
| 2026-05-03 21:48 | 26.07496 | -80.16297 | 17 ft | 0 kts | 269° |
| 2026-05-03 21:50 | 26.07496 | -80.16322 | 17 ft | 9 kts | 270° |
| 2026-05-03 21:51 | 26.07496 | -80.16340 | 17 ft | 0 kts | 270° |
| 2026-05-03 21:51 | 26.07496 | -80.16346 | 17 ft | 4 kts | 270° |
| 2026-05-03 21:52 | 26.07496 | -80.16348 | 17 ft | 0 kts | 271° |
| 2026-05-03 21:53 | 26.07496 | -80.16350 | 17 ft | 1 kts | 271° |
| 2026-05-03 21:53 | 26.07496 | -80.16354 | 17 ft | 1 kts | 271° |
| 2026-05-03 21:53 | 26.07496 | -80.16356 | 17 ft | 0 kts | 271° |
| 2026-05-03 21:55 | 26.07497 | -80.16365 | 17 ft | 4 kts | 271° |
| 2026-05-03 21:55 | 26.07497 | -80.16394 | 17 ft | 4 kts | 271° |
| 2026-05-03 21:55 | 26.07498 | -80.16419 | 17 ft | 0 kts | 271° |
| 2026-05-03 21:59 | 26.07498 | -80.16424 | 17 ft | 1 kts | 270° |
| 2026-05-03 21:59 | 26.07498 | -80.16431 | 17 ft | 0 kts | 270° |
| 2026-05-03 22:06 | 26.07498 | -80.16456 | 18 ft | 8 kts | 270° |
| 2026-05-03 22:06 | 26.07498 | -80.16487 | 18 ft | 0 kts | 270° |
| 2026-05-03 22:09 | 26.07498 | -80.16501 | 18 ft | 9 kts | 270° |
| 2026-05-03 22:09 | 26.07498 | -80.16536 | 18 ft | 4 kts | 270° |
| 2026-05-03 22:09 | 26.07498 | -80.16566 | 17 ft | 0 kts | 270° |
| 2026-05-03 22:10 | 26.07498 | -80.16570 | 17 ft | 0 kts | 270° |
| 2026-05-03 22:10 | 26.07498 | -80.16581 | 17 ft | 4 kts | 270° |
| 2026-05-03 22:10 | 26.07498 | -80.16584 | 17 ft | 0 kts | 270° |
| 2026-05-03 22:12 | 26.07498 | -80.16586 | 17 ft | 1 kts | 270° |
| 2026-05-03 22:12 | 26.07498 | -80.16591 | 17 ft | 1 kts | 270° |
| 2026-05-03 22:17 | 26.07501 | -80.16614 | 17 ft | 5 kts | 288° |
| 2026-05-03 22:17 | 26.07504 | -80.16622 | 16 ft | 0 kts | 298° |
| 2026-05-03 22:19 | 26.07515 | -80.16634 | 17 ft | 4 kts | 324° |
| 2026-05-03 22:19 | 26.07541 | -80.16641 | 16 ft | 0 kts | 355° |
| 2026-05-03 22:20 | 26.07550 | -80.16642 | 16 ft | 4 kts | 355° |
| 2026-05-03 22:20 | 26.07552 | -80.16642 | 16 ft | 0 kts | 358° |
| 2026-05-03 22:22 | 26.07560 | -80.16643 | 15 ft | 2 kts | 358° |
| 2026-05-03 22:22 | 26.07572 | -80.16643 | 15 ft | 2 kts | 358° |
| 2026-05-03 22:22 | 26.07590 | -80.16643 | 15 ft | 0 kts | 1° |
| 2026-05-03 22:23 | 26.07592 | -80.16643 | 15 ft | 2 kts | 1° |
| 2026-05-03 22:23 | 26.07651 | -80.16641 | 14 ft | 12 kts | 8° |
| 2026-05-03 22:23 | 26.07695 | -80.16575 | 15 ft | 10 kts | 91° |
| 2026-05-03 22:24 | 26.07694 | -80.16572 | 15 ft | 0 kts | 92° |
| 2026-05-03 22:24 | 26.07695 | -80.16417 | 19 ft | 54 kts | 89° |
| 2026-05-03 22:24 | 26.07690 | -80.15718 | 13 ft | 125 kts | 91° |
| 2026-05-03 22:24 | 26.07699 | -80.14524 | 85 ft | 174 kts | 87° |
| 2026-05-03 22:25 | 26.07696 | -80.13102 | 652 ft | 195 kts | 90° |
| 2026-05-03 22:25 | 26.07690 | -80.11532 | 1633 ft | 203 kts | 89° |
| 2026-05-03 22:25 | 26.07734 | -80.09982 | 2882 ft | 206 kts | 87° |
| 2026-05-03 22:25 | 26.07896 | -80.08268 | 3379 ft | 238 kts | 79° |
| 2026-05-03 22:26 | 26.08451 | -80.06492 | 4112 ft | 243 kts | 54° |
| 2026-05-03 22:26 | 26.09710 | -80.05306 | 4796 ft | 240 kts | 21° |
| 2026-05-03 22:26 | 26.11353 | -80.04652 | 5091 ft | 253 kts | 12° |
| 2026-05-03 22:26 | 26.13086 | -80.04223 | 5344 ft | 261 kts | 5° |
| 2026-05-03 22:27 | 26.14901 | -80.04116 | 5078 ft | 264 kts | 353° |
| 2026-05-03 22:27 | 26.16667 | -80.04487 | 4838 ft | 250 kts | 337° |
| 2026-05-03 22:27 | 26.18177 | -80.05247 | 4986 ft | 229 kts | 327° |
| 2026-05-03 22:27 | 26.19544 | -80.06088 | 5156 ft | 221 kts | 333° |
| 2026-05-03 22:28 | 26.20930 | -80.06685 | 5406 ft | 207 kts | 336° |
| 2026-05-03 22:28 | 26.22156 | -80.07368 | 5540 ft | 192 kts | 312° |
| 2026-05-03 22:28 | 26.22871 | -80.08737 | 4781 ft | 225 kts | 288° |
| 2026-05-03 22:28 | 26.23407 | -80.10385 | 5001 ft | 206 kts | 289° |
| 2026-05-03 22:29 | 26.23893 | -80.11824 | 5871 ft | 206 kts | 289° |
| 2026-05-03 22:29 | 26.24395 | -80.13280 | 6621 ft | 195 kts | 289° |
| 2026-05-03 22:29 | 26.24894 | -80.14702 | 7262 ft | 205 kts | 289° |
| 2026-05-03 22:29 | 26.25486 | -80.16200 | 7830 ft | 215 kts | 292° |
| 2026-05-03 22:30 | 26.26014 | -80.17806 | 8444 ft | 222 kts | 285° |
| 2026-05-03 22:30 | 26.26451 | -80.19434 | 9253 ft | 214 kts | 283° |
| 2026-05-03 22:30 | 26.26721 | -80.20469 | 9869 ft | 206 kts | 282° |
| 2026-05-03 22:30 | 26.27107 | -80.21946 | 10628 ft | 192 kts | 282° |
| 2026-05-03 22:31 | 26.27470 | -80.23332 | 11291 ft | 179 kts | 282° |
| 2026-05-03 22:31 | 26.27811 | -80.24630 | 11867 ft | 169 kts | 281° |
| 2026-05-03 22:31 | 26.28137 | -80.25875 | 12225 ft | 171 kts | 281° |
| 2026-05-03 22:31 | 26.28475 | -80.27171 | 12450 ft | 179 kts | 281° |
| 2026-05-03 22:32 | 26.28827 | -80.28516 | 12706 ft | 182 kts | 281° |
| 2026-05-03 22:32 | 26.29183 | -80.29866 | 13031 ft | 180 kts | 281° |
| 2026-05-03 22:32 | 26.29537 | -80.31207 | 13353 ft | 180 kts | 281° |
| 2026-05-03 22:32 | 26.29898 | -80.32581 | 13498 ft | 190 kts | 281° |
| 2026-05-03 22:33 | 26.30276 | -80.34020 | 13678 ft | 199 kts | 281° |
| 2026-05-03 22:33 | 26.30675 | -80.35539 | 13835 ft | 210 kts | 281° |
| 2026-05-03 22:33 | 26.31098 | -80.37146 | 13976 ft | 222 kts | 281° |
| 2026-05-03 22:33 | 26.31547 | -80.38849 | 14114 ft | 236 kts | 282° |
| 2026-05-03 22:34 | 26.32023 | -80.40655 | 14226 ft | 251 kts | 282° |
| 2026-05-03 22:34 | 26.32535 | -80.42595 | 14334 ft | 270 kts | 282° |
| 2026-05-03 22:34 | 26.33081 | -80.44666 | 14499 ft | 288 kts | 282° |
| 2026-05-03 22:34 | 26.33667 | -80.46885 | 14658 ft | 308 kts | 283° |
| 2026-05-03 22:35 | 26.34290 | -80.49246 | 14790 ft | 327 kts | 283° |
| 2026-05-03 22:35 | 26.34952 | -80.51748 | 14942 ft | 346 kts | 283° |
| 2026-05-03 22:35 | 26.35648 | -80.54384 | 15080 ft | 364 kts | 283° |
| 2026-05-03 22:35 | 26.36377 | -80.57145 | 15200 ft | 382 kts | 283° |
| 2026-05-03 22:36 | 26.37138 | -80.60022 | 15644 ft | 389 kts | 283° |
| 2026-05-03 22:36 | 26.37910 | -80.62946 | 16053 ft | 395 kts | 283° |
| 2026-05-03 22:36 | 26.38687 | -80.65895 | 16490 ft | 399 kts | 283° |
| 2026-05-03 22:36 | 26.39475 | -80.68893 | 16944 ft | 403 kts | 283° |
| 2026-05-03 22:37 | 26.40465 | -80.71839 | 17368 ft | 413 kts | 294° |
| 2026-05-03 22:37 | 26.42166 | -80.74466 | 17844 ft | 423 kts | 307° |
| 2026-05-03 22:37 | 26.44202 | -80.76865 | 18348 ft | 428 kts | 308° |
| 2026-05-03 22:37 | 26.46274 | -80.79275 | 18741 ft | 431 kts | 308° |
| 2026-05-03 22:38 | 26.48337 | -80.81721 | 19131 ft | 433 kts | 307° |
| 2026-05-03 22:38 | 26.50386 | -80.84190 | 19535 ft | 433 kts | 307° |
| 2026-05-03 22:38 | 26.52428 | -80.86668 | 19971 ft | 434 kts | 307° |
| 2026-05-03 22:38 | 26.54470 | -80.89144 | 20384 ft | 434 kts | 307° |
| 2026-05-03 22:39 | 26.56519 | -80.91627 | 20810 ft | 434 kts | 307° |
| 2026-05-03 22:39 | 26.58566 | -80.94108 | 21248 ft | 434 kts | 307° |
| 2026-05-03 22:39 | 26.60608 | -80.96585 | 21692 ft | 433 kts | 307° |
| 2026-05-03 22:39 | 26.62649 | -80.99060 | 22139 ft | 432 kts | 307° |
| 2026-05-03 22:40 | 26.64679 | -81.01525 | 22590 ft | 431 kts | 306° |
| 2026-05-03 22:40 | 26.66706 | -81.03986 | 23055 ft | 430 kts | 306° |
| 2026-05-03 22:40 | 26.68721 | -81.06435 | 23523 ft | 428 kts | 306° |
| 2026-05-03 22:40 | 26.70732 | -81.08882 | 23942 ft | 426 kts | 306° |
| 2026-05-03 22:41 | 26.72739 | -81.11324 | 24338 ft | 425 kts | 306° |
| 2026-05-03 22:41 | 26.74833 | -81.13665 | 24729 ft | 429 kts | 313° |
| 2026-05-03 22:41 | 26.77278 | -81.15626 | 25144 ft | 434 kts | 320° |
| 2026-05-03 22:41 | 26.79829 | -81.17433 | 25558 ft | 432 kts | 320° |
| 2026-05-03 22:42 | 26.82367 | -81.19212 | 25969 ft | 430 kts | 320° |
| 2026-05-03 22:42 | 26.84885 | -81.20980 | 26389 ft | 426 kts | 320° |
| 2026-05-03 22:42 | 26.87382 | -81.22747 | 26814 ft | 422 kts | 320° |
| 2026-05-03 22:42 | 26.89854 | -81.24508 | 27246 ft | 418 kts | 320° |
| 2026-05-03 22:43 | 26.92291 | -81.26253 | 27687 ft | 414 kts | 320° |
| 2026-05-03 22:43 | 26.94701 | -81.27986 | 28132 ft | 410 kts | 319° |
| 2026-05-03 22:43 | 26.97083 | -81.29702 | 28587 ft | 405 kts | 319° |
| 2026-05-03 22:43 | 26.99436 | -81.31400 | 29044 ft | 400 kts | 319° |
| 2026-05-03 22:44 | 27.01760 | -81.33077 | 29505 ft | 394 kts | 319° |
| 2026-05-03 22:44 | 27.04051 | -81.34732 | 29968 ft | 389 kts | 319° |
| 2026-05-03 22:44 | 27.06339 | -81.36389 | 30032 ft | 394 kts | 319° |
| 2026-05-03 22:45 | 27.11004 | -81.39780 | 30073 ft | 405 kts | 319° |
| 2026-05-03 22:45 | 27.15800 | -81.43260 | 30085 ft | 416 kts | 320° |
| 2026-05-03 22:46 | 27.20726 | -81.46832 | 30082 ft | 426 kts | 320° |
| 2026-05-03 22:46 | 27.25769 | -81.50491 | 30081 ft | 436 kts | 320° |
| 2026-05-03 22:47 | 27.30917 | -81.54228 | 30084 ft | 445 kts | 320° |
| 2026-05-03 22:47 | 27.36177 | -81.58052 | 30085 ft | 454 kts | 320° |
| 2026-05-03 22:48 | 27.41521 | -81.61940 | 30081 ft | 461 kts | 320° |
| 2026-05-03 22:48 | 27.46944 | -81.65891 | 30084 ft | 466 kts | 320° |
| 2026-05-03 22:49 | 27.52318 | -81.69810 | 30069 ft | 470 kts | 320° |
| 2026-05-03 22:49 | 27.57876 | -81.73869 | 30079 ft | 472 kts | 320° |
| 2026-05-03 22:50 | 27.63424 | -81.77926 | 30073 ft | 473 kts | 320° |
| 2026-05-03 22:50 | 27.68942 | -81.81966 | 30074 ft | 474 kts | 320° |
| 2026-05-03 22:51 | 27.74443 | -81.85996 | 30059 ft | 462 kts | 320° |
| 2026-05-03 22:51 | 27.77107 | -81.87937 | 30045 ft | 439 kts | 319° |
| 2026-05-03 22:51 | 27.79664 | -81.89809 | 30087 ft | 438 kts | 319° |
| 2026-05-03 22:52 | 27.84793 | -81.93597 | 30082 ft | 442 kts | 319° |
| 2026-05-03 22:52 | 27.89887 | -81.97351 | 30073 ft | 438 kts | 319° |
| 2026-05-03 22:53 | 27.94955 | -82.01084 | 30075 ft | 436 kts | 319° |
| 2026-05-03 22:53 | 27.99998 | -82.04805 | 30072 ft | 434 kts | 319° |
| 2026-05-03 22:54 | 28.05056 | -82.08595 | 30073 ft | 430 kts | 314° |
| 2026-05-03 22:54 | 28.09072 | -82.13397 | 30079 ft | 415 kts | 298° |
| 2026-05-03 22:55 | 28.11777 | -82.19066 | 30096 ft | 408 kts | 289° |
| 2026-05-03 22:55 | 28.14159 | -82.24906 | 30085 ft | 409 kts | 289° |
| 2026-05-03 22:56 | 28.16551 | -82.30762 | 30079 ft | 410 kts | 289° |
| 2026-05-03 22:56 | 28.18964 | -82.36628 | 30057 ft | 411 kts | 289° |
| 2026-05-03 22:57 | 28.21386 | -82.42498 | 30070 ft | 411 kts | 289° |
| 2026-05-03 22:57 | 28.23823 | -82.48401 | 30076 ft | 411 kts | 289° |
| 2026-05-03 22:58 | 28.26247 | -82.54284 | 30075 ft | 410 kts | 289° |
| 2026-05-03 22:58 | 28.28654 | -82.60133 | 30075 ft | 408 kts | 289° |
| 2026-05-03 22:59 | 28.31046 | -82.65953 | 30074 ft | 406 kts | 289° |
| 2026-05-03 22:59 | 28.33423 | -82.71747 | 30072 ft | 403 kts | 288° |
| 2026-05-03 23:00 | 28.35781 | -82.77504 | 30072 ft | 401 kts | 288° |
| 2026-05-03 23:00 | 28.38121 | -82.83226 | 30078 ft | 398 kts | 288° |
| 2026-05-03 23:01 | 28.40444 | -82.88915 | 30075 ft | 396 kts | 288° |
| 2026-05-03 23:01 | 28.42752 | -82.94576 | 30084 ft | 394 kts | 288° |